CheckWX is a tool to help pilots better visualize weather data.  It is not intended as a substitute for an official pre-flight weather briefing.

02:28:04 UTC

KTHA METAR
Tullahoma Regional Arpt / Wm Northern Field Airport
Tullahoma, Tennessee, USA
Current

33 mins ago

KTHA 180155Z AUTO 29008KT 3SM BR BKN006 BKN034 OVC110 08/08 A2990 RMK A01 P0012
Observed
Feb-18 @ 01:55 UTC
Wind
  • 290° at 8 KTS
Visibility
3 SM
Flight Rules
IFR
Conditions
Mist
Cloud Levels
  • Broken at 600' AGL
  • Broken at 3,400' AGL
  • Overcast at 11,000' AGL
Temperature
C / 46°F
Dewpoint
C / 46°F
Humidity
100%
Altimeter
29.9" Hg
Pressure
1012.52 hPa
Current Rain
0.12"
Previous

53 mins ago

KTHA 180135Z AUTO 29006KT 5SM BR BKN006 OVC035 08/08 A2990 RMK A01
Observed
Feb-18 @ 01:35 UTC
Wind
  • 290° at 6 KTS
Visibility
5 SM
Flight Rules
IFR
Conditions
Mist
Cloud Levels
  • Broken at 600' AGL
  • Overcast at 3,500' AGL
Temperature
C / 46°F
Dewpoint
C / 46°F
Humidity
100%
Altimeter
29.9" Hg
Pressure
1012.52 hPa
Previous

1 hour ago

KTHA 180115Z AUTO 29007KT 4SM BR BKN005 OVC038 09/08 A2988 RMK A01
Observed
Feb-18 @ 01:15 UTC
Wind
  • 290° at 7 KTS
Visibility
4 SM
Flight Rules
IFR
Conditions
Mist
Cloud Levels
  • Broken at 500' AGL
  • Overcast at 3,800' AGL
Temperature
C / 48°F
Dewpoint
C / 46°F
Humidity
94%
Altimeter
29.88" Hg
Pressure
1011.82 hPa